sensor_id;sensor_type;location;lat;lon;timestamp;P1;durP1;ratioP1;P2;durP2;ratioP2
6941;SDS011;3510;43.200;27.920;2023-11-21T00:02:33;25.63;;;15.37;;
6941;SDS011;3510;43.200;27.920;2023-11-21T00:05:01;24.00;;;14.00;;
6941;SDS011;3510;43.200;27.920;2023-11-21T00:07:28;31.27;;;16.07;;
6941;SDS011;3510;43.200;27.920;2023-11-21T00:09:54;17.00;;;13.90;;
6941;SDS011;3510;43.200;27.920;2023-11-21T00:12:21;22.57;;;14.83;;
6941;SDS011;3510;43.200;27.920;2023-11-21T00:14:50;26.50;;;16.00;;
6941;SDS011;3510;43.200;27.920;2023-11-21T00:17:16;20.40;;;15.30;;
6941;SDS011;3510;43.200;27.920;2023-11-21T00:19:43;20.20;;;14.03;;
6941;SDS011;3510;43.200;27.920;2023-11-21T00:22:11;22.17;;;15.27;;
6941;SDS011;3510;43.200;27.920;2023-11-21T00:24:37;21.77;;;15.33;;
6941;SDS011;3510;43.200;27.920;2023-11-21T00:27:04;19.43;;;15.03;;
6941;SDS011;3510;43.200;27.920;2023-11-21T00:29:32;23.53;;;15.00;;
6941;SDS011;3510;43.200;27.920;2023-11-21T00:31:58;22.70;;;16.47;;
6941;SDS011;3510;43.200;27.920;2023-11-21T00:34:25;28.63;;;16.80;;
6941;SDS011;3510;43.200;27.920;2023-11-21T00:36:51;23.20;;;15.23;;
6941;SDS011;3510;43.200;27.920;2023-11-21T00:39:19;27.60;;;17.03;;
6941;SDS011;3510;43.200;27.920;2023-11-21T00:41:46;28.83;;;17.53;;
6941;SDS011;3510;43.200;27.920;2023-11-21T00:44:13;26.10;;;17.73;;
6941;SDS011;3510;43.200;27.920;2023-11-21T00:46:41;20.83;;;15.93;;
6941;SDS011;3510;43.200;27.920;2023-11-21T00:49:08;21.97;;;15.80;;
6941;SDS011;3510;43.200;27.920;2023-11-21T00:51:34;37.53;;;16.80;;
6941;SDS011;3510;43.200;27.920;2023-11-21T00:54:01;20.47;;;14.87;;
6941;SDS011;3510;43.200;27.920;2023-11-21T00:56:29;27.20;;;16.00;;
6941;SDS011;3510;43.200;27.920;2023-11-21T00:58:57;20.20;;;14.70;;
6941;SDS011;3510;43.200;27.920;2023-11-21T01:01:23;20.23;;;15.27;;
6941;SDS011;3510;43.200;27.920;2023-11-21T01:03:50;22.80;;;15.03;;
6941;SDS011;3510;43.200;27.920;2023-11-21T01:06:17;21.47;;;13.63;;
6941;SDS011;3510;43.200;27.920;2023-11-21T01:08:44;19.57;;;13.63;;
6941;SDS011;3510;43.200;27.920;2023-11-21T01:11:11;18.80;;;14.67;;
6941;SDS011;3510;43.200;27.920;2023-11-21T01:13:39;18.67;;;14.70;;
6941;SDS011;3510;43.200;27.920;2023-11-21T01:16:07;18.47;;;13.23;;
6941;SDS011;3510;43.200;27.920;2023-11-21T01:18:35;20.07;;;13.73;;
6941;SDS011;3510;43.200;27.920;2023-11-21T01:21:02;20.53;;;14.13;;
6941;SDS011;3510;43.200;27.920;2023-11-21T01:23:29;16.23;;;13.03;;
6941;SDS011;3510;43.200;27.920;2023-11-21T01:25:56;22.47;;;13.77;;
6941;SDS011;3510;43.200;27.920;2023-11-21T01:28:23;16.57;;;12.33;;
6941;SDS011;3510;43.200;27.920;2023-11-21T01:30:51;15.77;;;11.77;;
6941;SDS011;3510;43.200;27.920;2023-11-21T01:33:18;13.77;;;10.70;;
6941;SDS011;3510;43.200;27.920;2023-11-21T01:35:44;16.03;;;10.80;;
6941;SDS011;3510;43.200;27.920;2023-11-21T01:38:12;15.73;;;11.53;;
6941;SDS011;3510;43.200;27.920;2023-11-21T01:40:39;14.43;;;10.57;;
6941;SDS011;3510;43.200;27.920;2023-11-21T01:43:05;15.67;;;11.17;;
6941;SDS011;3510;43.200;27.920;2023-11-21T01:45:33;18.23;;;11.37;;
6941;SDS011;3510;43.200;27.920;2023-11-21T01:48:01;13.20;;;9.23;;
6941;SDS011;3510;43.200;27.920;2023-11-21T01:50:28;14.17;;;11.97;;
6941;SDS011;3510;43.200;27.920;2023-11-21T01:52:55;15.83;;;10.27;;
6941;SDS011;3510;43.200;27.920;2023-11-21T01:55:22;12.43;;;9.77;;
6941;SDS011;3510;43.200;27.920;2023-11-21T01:57:49;12.93;;;10.33;;
6941;SDS011;3510;43.200;27.920;2023-11-21T02:00:17;14.70;;;10.10;;
6941;SDS011;3510;43.200;27.920;2023-11-21T02:02:44;16.47;;;10.33;;
6941;SDS011;3510;43.200;27.920;2023-11-21T02:05:15;12.10;;;9.10;;
6941;SDS011;3510;43.200;27.920;2023-11-21T02:07:43;12.77;;;10.00;;
6941;SDS011;3510;43.200;27.920;2023-11-21T02:10:13;13.87;;;9.23;;
6941;SDS011;3510;43.200;27.920;2023-11-21T02:12:40;10.67;;;9.03;;
6941;SDS011;3510;43.200;27.920;2023-11-21T02:15:07;8.60;;;6.37;;
6941;SDS011;3510;43.200;27.920;2023-11-21T02:17:40;11.90;;;9.60;;
6941;SDS011;3510;43.200;27.920;2023-11-21T02:20:09;16.33;;;11.13;;
6941;SDS011;3510;43.200;27.920;2023-11-21T02:22:42;16.53;;;11.00;;
6941;SDS011;3510;43.200;27.920;2023-11-21T02:25:10;13.90;;;10.33;;
6941;SDS011;3510;43.200;27.920;2023-11-21T02:27:37;16.60;;;12.67;;
6941;SDS011;3510;43.200;27.920;2023-11-21T02:30:05;17.27;;;12.27;;
6941;SDS011;3510;43.200;27.920;2023-11-21T02:32:37;24.97;;;15.33;;
6941;SDS011;3510;43.200;27.920;2023-11-21T02:35:05;20.67;;;14.13;;
6941;SDS011;3510;43.200;27.920;2023-11-21T02:37:33;19.47;;;12.73;;
6941;SDS011;3510;43.200;27.920;2023-11-21T02:40:00;21.57;;;15.67;;
6941;SDS011;3510;43.200;27.920;2023-11-21T02:42:30;24.53;;;14.23;;
6941;SDS011;3510;43.200;27.920;2023-11-21T02:44:57;23.20;;;14.83;;
6941;SDS011;3510;43.200;27.920;2023-11-21T02:47:23;24.53;;;15.23;;
6941;SDS011;3510;43.200;27.920;2023-11-21T02:49:50;21.77;;;14.43;;
6941;SDS011;3510;43.200;27.920;2023-11-21T02:52:17;20.50;;;14.10;;
6941;SDS011;3510;43.200;27.920;2023-11-21T02:54:44;23.23;;;15.90;;
6941;SDS011;3510;43.200;27.920;2023-11-21T02:57:10;19.23;;;14.47;;
6941;SDS011;3510;43.200;27.920;2023-11-21T02:59:38;23.80;;;14.03;;
6941;SDS011;3510;43.200;27.920;2023-11-21T03:02:05;13.53;;;10.87;;
6941;SDS011;3510;43.200;27.920;2023-11-21T03:04:34;10.80;;;9.07;;
6941;SDS011;3510;43.200;27.920;2023-11-21T03:07:01;11.27;;;8.33;;
6941;SDS011;3510;43.200;27.920;2023-11-21T03:09:27;15.43;;;11.27;;
6941;SDS011;3510;43.200;27.920;2023-11-21T03:11:54;11.10;;;7.17;;
6941;SDS011;3510;43.200;27.920;2023-11-21T03:14:20;18.63;;;11.63;;
6941;SDS011;3510;43.200;27.920;2023-11-21T03:16:48;12.50;;;9.77;;
6941;SDS011;3510;43.200;27.920;2023-11-21T03:19:15;11.13;;;8.60;;
6941;SDS011;3510;43.200;27.920;2023-11-21T03:21:42;6.93;;;6.30;;
6941;SDS011;3510;43.200;27.920;2023-11-21T03:24:09;8.13;;;7.37;;
6941;SDS011;3510;43.200;27.920;2023-11-21T03:26:35;7.10;;;4.10;;
6941;SDS011;3510;43.200;27.920;2023-11-21T03:29:03;12.40;;;9.87;;
6941;SDS011;3510;43.200;27.920;2023-11-21T03:31:30;9.77;;;8.77;;
6941;SDS011;3510;43.200;27.920;2023-11-21T03:33:58;8.47;;;7.50;;
6941;SDS011;3510;43.200;27.920;2023-11-21T03:36:25;12.73;;;9.50;;
6941;SDS011;3510;43.200;27.920;2023-11-21T03:38:52;10.47;;;8.00;;
6941;SDS011;3510;43.200;27.920;2023-11-21T03:41:18;7.90;;;6.37;;
6941;SDS011;3510;43.200;27.920;2023-11-21T03:43:45;9.30;;;8.40;;
6941;SDS011;3510;43.200;27.920;2023-11-21T03:46:12;11.30;;;7.17;;
6941;SDS011;3510;43.200;27.920;2023-11-21T03:48:38;11.17;;;7.63;;
6941;SDS011;3510;43.200;27.920;2023-11-21T03:51:06;10.40;;;8.33;;
6941;SDS011;3510;43.200;27.920;2023-11-21T03:53:33;10.73;;;8.27;;
6941;SDS011;3510;43.200;27.920;2023-11-21T03:56:01;15.57;;;11.67;;
6941;SDS011;3510;43.200;27.920;2023-11-21T03:58:28;17.30;;;12.13;;
6941;SDS011;3510;43.200;27.920;2023-11-21T04:00:55;17.40;;;12.57;;
6941;SDS011;3510;43.200;27.920;2023-11-21T04:03:21;20.97;;;12.93;;
6941;SDS011;3510;43.200;27.920;2023-11-21T04:05:48;19.10;;;12.97;;
6941;SDS011;3510;43.200;27.920;2023-11-21T04:08:16;16.40;;;12.73;;
6941;SDS011;3510;43.200;27.920;2023-11-21T04:10:43;17.23;;;12.70;;
6941;SDS011;3510;43.200;27.920;2023-11-21T04:13:09;18.20;;;12.27;;
6941;SDS011;3510;43.200;27.920;2023-11-21T04:15:36;15.23;;;11.10;;
6941;SDS011;3510;43.200;27.920;2023-11-21T04:18:05;17.50;;;13.10;;
6941;SDS011;3510;43.200;27.920;2023-11-21T04:20:31;17.97;;;13.43;;
6941;SDS011;3510;43.200;27.920;2023-11-21T04:22:58;22.07;;;13.13;;
6941;SDS011;3510;43.200;27.920;2023-11-21T04:25:26;19.03;;;12.23;;
6941;SDS011;3510;43.200;27.920;2023-11-21T04:27:53;19.23;;;12.60;;
6941;SDS011;3510;43.200;27.920;2023-11-21T04:30:20;17.63;;;12.10;;
6941;SDS011;3510;43.200;27.920;2023-11-21T04:32:47;19.47;;;11.90;;
6941;SDS011;3510;43.200;27.920;2023-11-21T04:35:13;20.00;;;13.77;;
6941;SDS011;3510;43.200;27.920;2023-11-21T04:37:40;16.27;;;13.27;;
6941;SDS011;3510;43.200;27.920;2023-11-21T04:40:07;16.93;;;10.90;;
6941;SDS011;3510;43.200;27.920;2023-11-21T04:42:36;14.77;;;11.07;;
6941;SDS011;3510;43.200;27.920;2023-11-21T04:45:03;19.07;;;11.67;;
6941;SDS011;3510;43.200;27.920;2023-11-21T04:47:33;13.50;;;9.93;;
6941;SDS011;3510;43.200;27.920;2023-11-21T04:50:00;14.33;;;11.60;;
6941;SDS011;3510;43.200;27.920;2023-11-21T04:52:27;15.67;;;11.87;;
6941;SDS011;3510;43.200;27.920;2023-11-21T04:54:53;18.93;;;11.77;;
6941;SDS011;3510;43.200;27.920;2023-11-21T04:57:21;16.73;;;12.87;;
6941;SDS011;3510;43.200;27.920;2023-11-21T04:59:49;16.30;;;12.57;;
6941;SDS011;3510;43.200;27.920;2023-11-21T05:02:16;18.87;;;12.97;;
6941;SDS011;3510;43.200;27.920;2023-11-21T05:04:44;21.43;;;12.70;;
6941;SDS011;3510;43.200;27.920;2023-11-21T05:07:11;18.57;;;13.43;;
6941;SDS011;3510;43.200;27.920;2023-11-21T05:09:41;23.90;;;14.13;;
6941;SDS011;3510;43.200;27.920;2023-11-21T05:12:11;25.43;;;16.67;;
6941;SDS011;3510;43.200;27.920;2023-11-21T05:14:39;27.03;;;19.17;;
6941;SDS011;3510;43.200;27.920;2023-11-21T05:17:08;33.33;;;19.73;;
6941;SDS011;3510;43.200;27.920;2023-11-21T05:19:34;27.27;;;20.87;;
6941;SDS011;3510;43.200;27.920;2023-11-21T05:22:01;27.80;;;19.37;;
6941;SDS011;3510;43.200;27.920;2023-11-21T05:24:28;35.30;;;20.80;;
6941;SDS011;3510;43.200;27.920;2023-11-21T05:26:55;28.47;;;18.33;;
6941;SDS011;3510;43.200;27.920;2023-11-21T05:29:22;22.90;;;16.30;;
6941;SDS011;3510;43.200;27.920;2023-11-21T05:31:50;22.10;;;14.43;;
6941;SDS011;3510;43.200;27.920;2023-11-21T05:34:19;21.07;;;15.90;;
6941;SDS011;3510;43.200;27.920;2023-11-21T05:36:49;25.37;;;17.07;;
6941;SDS011;3510;43.200;27.920;2023-11-21T05:39:15;18.30;;;14.97;;
6941;SDS011;3510;43.200;27.920;2023-11-21T05:41:44;20.60;;;15.10;;
6941;SDS011;3510;43.200;27.920;2023-11-21T05:44:11;18.20;;;13.97;;
6941;SDS011;3510;43.200;27.920;2023-11-21T05:46:39;18.60;;;13.10;;
6941;SDS011;3510;43.200;27.920;2023-11-21T05:49:08;18.17;;;12.87;;
6941;SDS011;3510;43.200;27.920;2023-11-21T05:51:36;16.23;;;12.63;;
6941;SDS011;3510;43.200;27.920;2023-11-21T05:54:03;17.90;;;13.13;;
6941;SDS011;3510;43.200;27.920;2023-11-21T05:56:30;18.20;;;12.77;;
6941;SDS011;3510;43.200;27.920;2023-11-21T05:58:57;24.33;;;14.23;;
6941;SDS011;3510;43.200;27.920;2023-11-21T06:01:23;24.30;;;14.50;;
6941;SDS011;3510;43.200;27.920;2023-11-21T06:03:53;23.70;;;13.10;;
6941;SDS011;3510;43.200;27.920;2023-11-21T06:06:20;15.67;;;13.17;;
6941;SDS011;3510;43.200;27.920;2023-11-21T06:08:48;23.47;;;13.80;;
6941;SDS011;3510;43.200;27.920;2023-11-21T06:11:16;19.67;;;12.97;;
6941;SDS011;3510;43.200;27.920;2023-11-21T06:13:43;34.63;;;23.23;;
6941;SDS011;3510;43.200;27.920;2023-11-21T06:16:10;77.67;;;47.87;;
6941;SDS011;3510;43.200;27.920;2023-11-21T06:18:39;65.93;;;41.77;;
6941;SDS011;3510;43.200;27.920;2023-11-21T06:21:09;51.57;;;36.43;;
6941;SDS011;3510;43.200;27.920;2023-11-21T06:23:35;49.33;;;33.33;;
6941;SDS011;3510;43.200;27.920;2023-11-21T06:26:03;45.33;;;31.50;;
6941;SDS011;3510;43.200;27.920;2023-11-21T06:28:31;41.23;;;21.20;;
6941;SDS011;3510;43.200;27.920;2023-11-21T06:30:59;29.67;;;20.17;;
6941;SDS011;3510;43.200;27.920;2023-11-21T06:33:30;25.33;;;16.77;;
6941;SDS011;3510;43.200;27.920;2023-11-21T06:35:56;17.97;;;11.33;;
6941;SDS011;3510;43.200;27.920;2023-11-21T06:38:23;19.60;;;15.13;;
6941;SDS011;3510;43.200;27.920;2023-11-21T06:40:50;20.70;;;14.07;;
6941;SDS011;3510;43.200;27.920;2023-11-21T06:43:18;19.40;;;14.63;;
6941;SDS011;3510;43.200;27.920;2023-11-21T06:45:47;24.27;;;13.67;;
6941;SDS011;3510;43.200;27.920;2023-11-21T06:48:14;14.60;;;10.33;;
6941;SDS011;3510;43.200;27.920;2023-11-21T06:50:41;25.67;;;16.50;;
6941;SDS011;3510;43.200;27.920;2023-11-21T06:53:07;28.10;;;17.73;;
6941;SDS011;3510;43.200;27.920;2023-11-21T06:55:34;29.37;;;18.03;;
6941;SDS011;3510;43.200;27.920;2023-11-21T06:58:01;28.73;;;17.77;;
6941;SDS011;3510;43.200;27.920;2023-11-21T07:00:29;24.57;;;13.57;;
6941;SDS011;3510;43.200;27.920;2023-11-21T07:02:56;29.90;;;18.90;;
6941;SDS011;3510;43.200;27.920;2023-11-21T07:05:22;21.33;;;12.80;;
6941;SDS011;3510;43.200;27.920;2023-11-21T07:07:49;37.50;;;19.73;;
6941;SDS011;3510;43.200;27.920;2023-11-21T07:10:19;25.30;;;12.60;;
6941;SDS011;3510;43.200;27.920;2023-11-21T07:12:46;21.47;;;13.63;;
6941;SDS011;3510;43.200;27.920;2023-11-21T07:15:12;32.40;;;15.33;;
6941;SDS011;3510;43.200;27.920;2023-11-21T07:17:40;25.27;;;16.83;;
6941;SDS011;3510;43.200;27.920;2023-11-21T07:20:09;25.63;;;13.53;;
6941;SDS011;3510;43.200;27.920;2023-11-21T07:22:37;22.00;;;14.60;;
6941;SDS011;3510;43.200;27.920;2023-11-21T07:25:04;21.70;;;13.47;;
6941;SDS011;3510;43.200;27.920;2023-11-21T07:27:32;31.30;;;14.63;;
6941;SDS011;3510;43.200;27.920;2023-11-21T07:30:01;23.63;;;15.37;;
6941;SDS011;3510;43.200;27.920;2023-11-21T07:32:29;24.27;;;15.27;;
6941;SDS011;3510;43.200;27.920;2023-11-21T07:34:57;23.27;;;15.00;;
6941;SDS011;3510;43.200;27.920;2023-11-21T07:37:26;20.77;;;12.60;;
6941;SDS011;3510;43.200;27.920;2023-11-21T07:39:54;21.70;;;13.23;;
6941;SDS011;3510;43.200;27.920;2023-11-21T07:42:21;26.77;;;15.87;;
6941;SDS011;3510;43.200;27.920;2023-11-21T07:44:48;32.43;;;17.60;;
6941;SDS011;3510;43.200;27.920;2023-11-21T07:47:15;35.23;;;16.77;;
6941;SDS011;3510;43.200;27.920;2023-11-21T07:49:42;28.73;;;16.30;;
6941;SDS011;3510;43.200;27.920;2023-11-21T07:52:15;23.93;;;14.30;;
6941;SDS011;3510;43.200;27.920;2023-11-21T07:54:42;25.47;;;15.33;;
6941;SDS011;3510;43.200;27.920;2023-11-21T07:57:08;26.13;;;13.83;;
6941;SDS011;3510;43.200;27.920;2023-11-21T07:59:38;20.77;;;12.80;;
6941;SDS011;3510;43.200;27.920;2023-11-21T08:02:05;15.93;;;10.97;;
6941;SDS011;3510;43.200;27.920;2023-11-21T08:04:32;18.50;;;10.87;;
6941;SDS011;3510;43.200;27.920;2023-11-21T08:06:59;18.57;;;11.00;;
6941;SDS011;3510;43.200;27.920;2023-11-21T08:09:27;12.87;;;9.50;;
6941;SDS011;3510;43.200;27.920;2023-11-21T08:11:54;19.13;;;10.60;;
6941;SDS011;3510;43.200;27.920;2023-11-21T08:14:21;19.87;;;11.70;;
6941;SDS011;3510;43.200;27.920;2023-11-21T08:16:50;15.77;;;11.20;;
6941;SDS011;3510;43.200;27.920;2023-11-21T08:19:17;17.63;;;11.90;;
6941;SDS011;3510;43.200;27.920;2023-11-21T08:21:44;20.17;;;12.30;;
6941;SDS011;3510;43.200;27.920;2023-11-21T08:24:11;26.77;;;12.17;;
6941;SDS011;3510;43.200;27.920;2023-11-21T08:26:39;17.80;;;12.17;;
6941;SDS011;3510;43.200;27.920;2023-11-21T08:29:05;23.63;;;12.30;;
6941;SDS011;3510;43.200;27.920;2023-11-21T08:31:33;21.43;;;11.67;;
6941;SDS011;3510;43.200;27.920;2023-11-21T08:33:59;30.57;;;11.50;;
6941;SDS011;3510;43.200;27.920;2023-11-21T08:36:28;27.17;;;11.73;;
6941;SDS011;3510;43.200;27.920;2023-11-21T08:38:56;19.03;;;11.60;;
6941;SDS011;3510;43.200;27.920;2023-11-21T08:41:34;20.93;;;9.77;;
6941;SDS011;3510;43.200;27.920;2023-11-21T08:44:03;19.43;;;10.57;;
6941;SDS011;3510;43.200;27.920;2023-11-21T08:46:32;13.83;;;9.60;;
6941;SDS011;3510;43.200;27.920;2023-11-21T08:48:58;14.70;;;9.60;;
6941;SDS011;3510;43.200;27.920;2023-11-21T08:51:27;16.03;;;8.97;;
6941;SDS011;3510;43.200;27.920;2023-11-21T08:53:53;13.27;;;7.97;;
6941;SDS011;3510;43.200;27.920;2023-11-21T08:56:24;15.20;;;8.27;;
6941;SDS011;3510;43.200;27.920;2023-11-21T08:58:51;14.37;;;9.03;;
6941;SDS011;3510;43.200;27.920;2023-11-21T09:01:19;12.37;;;9.17;;
6941;SDS011;3510;43.200;27.920;2023-11-21T09:03:46;12.27;;;7.57;;
6941;SDS011;3510;43.200;27.920;2023-11-21T09:06:13;11.10;;;7.20;;
6941;SDS011;3510;43.200;27.920;2023-11-21T09:08:39;13.17;;;6.47;;
6941;SDS011;3510;43.200;27.920;2023-11-21T09:11:07;9.30;;;6.40;;
6941;SDS011;3510;43.200;27.920;2023-11-21T09:13:34;7.80;;;5.77;;
6941;SDS011;3510;43.200;27.920;2023-11-21T09:16:01;10.67;;;5.97;;
6941;SDS011;3510;43.200;27.920;2023-11-21T09:18:29;10.27;;;5.73;;
6941;SDS011;3510;43.200;27.920;2023-11-21T09:20:56;4.27;;;3.97;;
6941;SDS011;3510;43.200;27.920;2023-11-21T09:23:23;6.47;;;5.17;;
6941;SDS011;3510;43.200;27.920;2023-11-21T09:25:50;10.77;;;5.13;;
6941;SDS011;3510;43.200;27.920;2023-11-21T09:28:19;7.57;;;4.70;;
6941;SDS011;3510;43.200;27.920;2023-11-21T09:30:46;6.30;;;4.33;;
6941;SDS011;3510;43.200;27.920;2023-11-21T09:33:14;4.60;;;3.30;;
6941;SDS011;3510;43.200;27.920;2023-11-21T09:35:42;5.73;;;3.50;;
6941;SDS011;3510;43.200;27.920;2023-11-21T09:38:09;3.20;;;2.90;;
6941;SDS011;3510;43.200;27.920;2023-11-21T09:40:36;4.30;;;2.67;;
6941;SDS011;3510;43.200;27.920;2023-11-21T09:43:05;6.40;;;2.93;;
6941;SDS011;3510;43.200;27.920;2023-11-21T09:45:41;3.83;;;3.30;;
6941;SDS011;3510;43.200;27.920;2023-11-21T09:48:12;4.13;;;3.43;;
6941;SDS011;3510;43.200;27.920;2023-11-21T09:50:39;2.93;;;2.63;;
6941;SDS011;3510;43.200;27.920;2023-11-21T09:53:13;6.67;;;3.00;;
6941;SDS011;3510;43.200;27.920;2023-11-21T09:55:43;4.63;;;3.77;;
6941;SDS011;3510;43.200;27.920;2023-11-21T09:58:11;2.90;;;2.70;;
6941;SDS011;3510;43.200;27.920;2023-11-21T10:00:40;3.60;;;3.30;;
6941;SDS011;3510;43.200;27.920;2023-11-21T10:03:07;3.77;;;2.50;;
6941;SDS011;3510;43.200;27.920;2023-11-21T10:05:35;3.13;;;2.80;;
6941;SDS011;3510;43.200;27.920;2023-11-21T10:08:06;5.00;;;3.93;;
6941;SDS011;3510;43.200;27.920;2023-11-21T10:10:34;6.57;;;4.07;;
6941;SDS011;3510;43.200;27.920;2023-11-21T10:13:02;7.33;;;3.80;;
6941;SDS011;3510;43.200;27.920;2023-11-21T10:15:31;5.57;;;3.80;;
6941;SDS011;3510;43.200;27.920;2023-11-21T10:18:01;4.47;;;4.07;;
6941;SDS011;3510;43.200;27.920;2023-11-21T10:20:29;7.07;;;3.67;;
6941;SDS011;3510;43.200;27.920;2023-11-21T10:22:59;6.30;;;3.63;;
6941;SDS011;3510;43.200;27.920;2023-11-21T10:25:28;4.05;;;3.75;;
6941;SDS011;3510;43.200;27.920;2023-11-21T10:27:57;4.18;;;3.78;;
6941;SDS011;3510;43.200;27.920;2023-11-21T10:30:28;4.33;;;3.93;;
6941;SDS011;3510;43.200;27.920;2023-11-21T10:33:02;10.65;;;4.35;;
6941;SDS011;3510;43.200;27.920;2023-11-21T10:35:38;9.90;;;4.53;;
6941;SDS011;3510;43.200;27.920;2023-11-21T10:38:06;5.70;;;4.38;;
6941;SDS011;3510;43.200;27.920;2023-11-21T10:40:38;8.33;;;4.73;;
6941;SDS011;3510;43.200;27.920;2023-11-21T10:43:06;6.25;;;4.57;;
6941;SDS011;3510;43.200;27.920;2023-11-21T10:45:35;6.80;;;4.07;;
6941;SDS011;3510;43.200;27.920;2023-11-21T10:48:04;5.50;;;4.43;;
6941;SDS011;3510;43.200;27.920;2023-11-21T10:50:34;8.35;;;4.15;;
6941;SDS011;3510;43.200;27.920;2023-11-21T10:53:01;6.43;;;4.97;;
6941;SDS011;3510;43.200;27.920;2023-11-21T10:55:30;5.20;;;4.65;;
6941;SDS011;3510;43.200;27.920;2023-11-21T10:57:59;9.02;;;4.55;;
6941;SDS011;3510;43.200;27.920;2023-11-21T11:00:28;9.80;;;5.72;;
6941;SDS011;3510;43.200;27.920;2023-11-21T11:02:56;5.00;;;4.50;;
6941;SDS011;3510;43.200;27.920;2023-11-21T11:05:24;8.48;;;4.53;;
6941;SDS011;3510;43.200;27.920;2023-11-21T11:07:56;5.30;;;4.20;;
6941;SDS011;3510;43.200;27.920;2023-11-21T11:10:27;4.78;;;4.05;;
6941;SDS011;3510;43.200;27.920;2023-11-21T11:12:54;4.70;;;4.07;;
6941;SDS011;3510;43.200;27.920;2023-11-21T11:15:24;5.05;;;4.55;;
6941;SDS011;3510;43.200;27.920;2023-11-21T11:17:52;3.95;;;3.67;;
6941;SDS011;3510;43.200;27.920;2023-11-21T11:20:22;5.90;;;4.43;;
6941;SDS011;3510;43.200;27.920;2023-11-21T11:22:52;3.53;;;3.22;;
6941;SDS011;3510;43.200;27.920;2023-11-21T11:25:35;4.82;;;3.92;;
6941;SDS011;3510;43.200;27.920;2023-11-21T11:28:11;4.18;;;3.78;;
6941;SDS011;3510;43.200;27.920;2023-11-21T11:30:50;7.28;;;4.40;;
6941;SDS011;3510;43.200;27.920;2023-11-21T11:33:30;4.90;;;3.80;;
6941;SDS011;3510;43.200;27.920;2023-11-21T11:36:05;5.55;;;4.22;;
6941;SDS011;3510;43.200;27.920;2023-11-21T11:38:37;3.97;;;3.75;;
6941;SDS011;3510;43.200;27.920;2023-11-21T11:41:04;9.68;;;4.20;;
6941;SDS011;3510;43.200;27.920;2023-11-21T11:43:34;5.55;;;3.97;;
6941;SDS011;3510;43.200;27.920;2023-11-21T11:46:10;8.40;;;4.30;;
6941;SDS011;3510;43.200;27.920;2023-11-21T11:48:39;3.67;;;3.30;;
6941;SDS011;3510;43.200;27.920;2023-11-21T11:51:11;8.07;;;4.22;;
6941;SDS011;3510;43.200;27.920;2023-11-21T11:53:39;4.50;;;3.90;;
6941;SDS011;3510;43.200;27.920;2023-11-21T11:58:51;4.47;;;4.07;;
6941;SDS011;3510;43.200;27.920;2023-11-21T12:01:20;4.87;;;4.37;;
6941;SDS011;3510;43.200;27.920;2023-11-21T12:06:42;8.40;;;4.70;;
6941;SDS011;3510;43.200;27.920;2023-11-21T12:09:10;7.37;;;5.20;;
6941;SDS011;3510;43.200;27.920;2023-11-21T12:11:43;8.80;;;4.63;;
6941;SDS011;3510;43.200;27.920;2023-11-21T12:14:11;5.57;;;3.80;;
6941;SDS011;3510;43.200;27.920;2023-11-21T12:16:41;4.77;;;4.37;;
6941;SDS011;3510;43.200;27.920;2023-11-21T12:19:09;4.80;;;3.27;;
6941;SDS011;3510;43.200;27.920;2023-11-21T12:21:36;5.40;;;3.63;;
6941;SDS011;3510;43.200;27.920;2023-11-21T12:24:03;5.33;;;4.20;;
6941;SDS011;3510;43.200;27.920;2023-11-21T12:26:33;4.57;;;4.13;;
6941;SDS011;3510;43.200;27.920;2023-11-21T12:29:00;4.33;;;3.80;;
6941;SDS011;3510;43.200;27.920;2023-11-21T12:31:29;6.40;;;3.33;;
6941;SDS011;3510;43.200;27.920;2023-11-21T12:33:57;4.20;;;3.30;;
6941;SDS011;3510;43.200;27.920;2023-11-21T12:36:24;4.10;;;3.80;;
6941;SDS011;3510;43.200;27.920;2023-11-21T12:38:54;5.40;;;3.30;;
6941;SDS011;3510;43.200;27.920;2023-11-21T12:41:20;4.53;;;3.80;;
6941;SDS011;3510;43.200;27.920;2023-11-21T12:43:47;5.77;;;3.40;;
6941;SDS011;3510;43.200;27.920;2023-11-21T12:46:14;4.13;;;3.73;;
6941;SDS011;3510;43.200;27.920;2023-11-21T12:48:42;3.83;;;3.53;;
6941;SDS011;3510;43.200;27.920;2023-11-21T12:51:12;3.87;;;3.30;;
6941;SDS011;3510;43.200;27.920;2023-11-21T12:53:41;3.77;;;3.43;;
6941;SDS011;3510;43.200;27.920;2023-11-21T12:56:09;4.57;;;3.07;;
6941;SDS011;3510;43.200;27.920;2023-11-21T12:58:37;4.93;;;3.33;;
6941;SDS011;3510;43.200;27.920;2023-11-21T13:01:05;8.17;;;3.03;;
6941;SDS011;3510;43.200;27.920;2023-11-21T13:03:37;3.78;;;3.33;;
6941;SDS011;3510;43.200;27.920;2023-11-21T13:06:05;3.40;;;3.10;;
6941;SDS011;3510;43.200;27.920;2023-11-21T13:08:34;3.73;;;2.90;;
6941;SDS011;3510;43.200;27.920;2023-11-21T13:11:04;5.13;;;2.63;;
6941;SDS011;3510;43.200;27.920;2023-11-21T13:13:32;6.20;;;2.37;;
6941;SDS011;3510;43.200;27.920;2023-11-21T13:15:59;2.17;;;2.07;;
6941;SDS011;3510;43.200;27.920;2023-11-21T13:18:29;1.90;;;1.70;;
6941;SDS011;3510;43.200;27.920;2023-11-21T13:20:57;4.30;;;1.87;;
6941;SDS011;3510;43.200;27.920;2023-11-21T13:23:25;2.53;;;2.33;;
6941;SDS011;3510;43.200;27.920;2023-11-21T13:25:55;1.80;;;1.70;;
6941;SDS011;3510;43.200;27.920;2023-11-21T13:28:23;1.87;;;1.77;;
6941;SDS011;3510;43.200;27.920;2023-11-21T13:30:56;5.40;;;2.03;;
6941;SDS011;3510;43.200;27.920;2023-11-21T13:33:27;2.13;;;2.03;;
6941;SDS011;3510;43.200;27.920;2023-11-21T13:35:55;2.43;;;2.23;;
6941;SDS011;3510;43.200;27.920;2023-11-21T13:38:22;4.33;;;2.37;;
6941;SDS011;3510;43.200;27.920;2023-11-21T13:40:50;2.77;;;1.93;;
6941;SDS011;3510;43.200;27.920;2023-11-21T13:43:21;2.17;;;1.97;;
6941;SDS011;3510;43.200;27.920;2023-11-21T13:45:50;2.53;;;2.07;;
6941;SDS011;3510;43.200;27.920;2023-11-21T13:48:25;1.77;;;1.67;;
6941;SDS011;3510;43.200;27.920;2023-11-21T13:50:59;1.87;;;1.70;;
6941;SDS011;3510;43.200;27.920;2023-11-21T13:53:33;4.47;;;1.90;;
6941;SDS011;3510;43.200;27.920;2023-11-21T13:56:03;2.13;;;2.03;;
6941;SDS011;3510;43.200;27.920;2023-11-21T13:58:31;2.70;;;2.00;;
6941;SDS011;3510;43.200;27.920;2023-11-21T14:01:06;2.60;;;2.30;;
6941;SDS011;3510;43.200;27.920;2023-11-21T14:03:42;2.03;;;1.67;;
6941;SDS011;3510;43.200;27.920;2023-11-21T14:06:17;2.30;;;2.20;;
6941;SDS011;3510;43.200;27.920;2023-11-21T14:08:49;2.00;;;1.90;;
6941;SDS011;3510;43.200;27.920;2023-11-21T14:11:16;3.10;;;2.20;;
6941;SDS011;3510;43.200;27.920;2023-11-21T14:13:49;3.83;;;2.27;;
6941;SDS011;3510;43.200;27.920;2023-11-21T14:16:16;4.03;;;2.27;;
6941;SDS011;3510;43.200;27.920;2023-11-21T14:18:43;2.97;;;2.20;;
6941;SDS011;3510;43.200;27.920;2023-11-21T14:21:19;2.20;;;2.00;;
6941;SDS011;3510;43.200;27.920;2023-11-21T14:23:46;2.67;;;2.47;;
6941;SDS011;3510;43.200;27.920;2023-11-21T14:26:13;3.17;;;2.07;;
6941;SDS011;3510;43.200;27.920;2023-11-21T14:28:42;1.87;;;1.77;;
6941;SDS011;3510;43.200;27.920;2023-11-21T14:31:10;3.20;;;2.10;;
6941;SDS011;3510;43.200;27.920;2023-11-21T14:33:40;3.57;;;2.37;;
6941;SDS011;3510;43.200;27.920;2023-11-21T14:36:07;6.17;;;2.67;;
6941;SDS011;3510;43.200;27.920;2023-11-21T14:38:35;3.73;;;2.20;;
6941;SDS011;3510;43.200;27.920;2023-11-21T14:41:02;8.33;;;2.33;;
6941;SDS011;3510;43.200;27.920;2023-11-21T14:43:29;2.33;;;2.13;;
6941;SDS011;3510;43.200;27.920;2023-11-21T14:46:00;3.23;;;2.93;;
6941;SDS011;3510;43.200;27.920;2023-11-21T14:48:29;7.27;;;2.47;;
6941;SDS011;3510;43.200;27.920;2023-11-21T14:51:07;2.63;;;2.43;;
6941;SDS011;3510;43.200;27.920;2023-11-21T14:53:48;2.13;;;2.03;;
6941;SDS011;3510;43.200;27.920;2023-11-21T14:56:18;2.63;;;2.47;;
6941;SDS011;3510;43.200;27.920;2023-11-21T14:58:51;3.77;;;2.80;;